createdAt,value
2023-08-15T00:20:24.775Z,10.10
2023-08-15T00:50:27.653Z,10.97
2023-08-15T01:20:30.775Z,11.47
2023-08-15T01:50:33.679Z,12.87
2023-08-15T02:20:37.245Z,15.00
2023-08-15T02:50:40.309Z,13.03
2023-08-15T03:20:44.113Z,15.53
2023-08-15T03:50:47.154Z,12.47
2023-08-15T04:20:51.377Z,13.57
2023-08-15T04:50:54.292Z,12.10
2023-08-15T05:20:58.905Z,11.33
2023-08-15T05:51:01.876Z,9.17
2023-08-15T06:21:06.301Z,8.77
2023-08-15T06:51:09.186Z,8.60
2023-08-15T07:21:12.153Z,8.00
2023-08-15T07:51:15.765Z,7.07
2023-08-15T08:21:18.801Z,6.20
2023-08-15T08:51:22.020Z,5.00
2023-08-15T09:21:25.207Z,5.20
2023-08-15T09:51:28.583Z,4.80
2023-08-15T10:21:31.938Z,4.55
2023-08-15T10:51:35.073Z,4.00
2023-08-15T11:21:38.384Z,3.70
2023-08-15T11:51:41.396Z,3.80
2023-08-15T12:21:44.720Z,3.93
2023-08-15T12:51:47.909Z,4.17
2023-08-15T13:21:51.191Z,4.10
2023-08-15T13:51:54.556Z,3.40
2023-08-15T14:21:58.516Z,4.17
2023-08-15T14:52:01.553Z,3.47
2023-08-15T15:22:05.100Z,3.65
2023-08-15T15:52:08.142Z,3.75
2023-08-15T16:22:11.213Z,4.00
2023-08-15T16:52:14.102Z,3.33
2023-08-15T17:22:17.237Z,4.87
2023-08-15T17:52:20.979Z,4.73
2023-08-15T18:22:24.814Z,4.37
2023-08-15T18:52:28.259Z,5.77
2023-08-15T19:22:31.256Z,4.97
2023-08-15T19:52:34.579Z,5.43
2023-08-15T20:22:37.711Z,7.23
2023-08-15T20:52:41.219Z,7.70
2023-08-15T21:22:45.072Z,7.65
2023-08-15T21:52:48.829Z,7.63
2023-08-15T22:22:51.817Z,8.73
2023-08-15T23:23:45.900Z,9.40
2023-08-15T23:53:48.953Z,8.23
